»·PEaware :: N8274D KPOC-KCMA

N8274D :: KPOC-KCMA

FLIGHT INFORMATION

Flight Status: Arrived
Operator: Privately registered:
United States
More flights under this callsign
Pilot: William L. (45479)
Aircraft: BEECH AIRCRAFT BONANZA
(BE35)
More flights by this aircraft type
Origin: KPOC Brackett
United States
Destination: KCMA Camarillo
United States
More flights between these airports :: More routes between these airports
Route: KVNY
File this flight plan on PilotEdge
Remarks:
Altitude:
(Current/Filed)
6,500ft
Speed:
(Current/Filed)
140kts
Departed: 31-Oct-23 03:21 PM
Arrived: 31-Oct-23 03:52 PM
Distance/Time
Traveled:
65nm/0:31
Distance/Time
To Go:
Arrived

Flight Plot

Page will automatically refresh every two minutes.

Flight plan parsing failed; only flown route is shown


Map Options




Map Legend


Flown Route
Filed Route
Departure Airport
Arrival Airport
Navaid (VOR, NDB)
Fix

Horizontal Profiles

Position Reports

Time Latitude Longitude Heading Altitude Ground
Speed
31-Oct-23 14:54 34.089966 -117.783286 93 993ft 0kts
31-Oct-23 14:55 34.089966 -117.783286 93 993ft 0kts
31-Oct-23 14:56 34.089966 -117.783286 93 993ft 0kts
31-Oct-23 14:57 34.089966 -117.783286 93 993ft 0kts
31-Oct-23 14:58 34.089966 -117.783286 93 993ft 0kts
31-Oct-23 14:59 34.089966 -117.783286 93 993ft 0kts
31-Oct-23 15:00 34.089966 -117.783286 93 993ft 0kts
31-Oct-23 15:02 34.089966 -117.783286 93 993ft 0kts
31-Oct-23 15:03 34.089966 -117.783286 93 993ft 0kts
31-Oct-23 15:04 34.089966 -117.783286 93 993ft 0kts
31-Oct-23 15:05 34.089966 -117.783286 93 993ft 0kts
31-Oct-23 15:06 34.089966 -117.783286 93 993ft 0kts
31-Oct-23 15:07 34.089966 -117.783286 93 993ft 0kts
31-Oct-23 15:08 34.089966 -117.783286 93 993ft 0kts
31-Oct-23 15:09 34.089966 -117.783286 93 993ft 0kts
31-Oct-23 15:10 34.089966 -117.783286 93 993ft 0kts
31-Oct-23 15:11 34.089966 -117.783286 93 993ft 0kts
31-Oct-23 15:12 34.089966 -117.783286 93 993ft 0kts
31-Oct-23 15:13 34.089966 -117.783286 93 993ft 0kts
31-Oct-23 15:14 34.089966 -117.783286 93 993ft 0kts
31-Oct-23 15:15 34.090644 -117.782240 92 994ft 8kts
31-Oct-23 15:16 34.090461 -117.778530 92 1002ft 12kts
31-Oct-23 15:17 34.090381 -117.774737 37 1012ft 7kts
31-Oct-23 15:18 34.090493 -117.774676 6 1012ft 0kts
31-Oct-23 15:19 34.090493 -117.774676 6 1012ft 0kts
31-Oct-23 15:20 34.090934 -117.774734 306 1014ft 7kts
31-Oct-23 15:21 34.090633 -117.795803 260 1644ft 93kts
31-Oct-23 15:22 34.083777 -117.826132 281 3096ft 96kts
31-Oct-23 15:23 34.093469 -117.856795 291 4470ft 98kts
31-Oct-23 15:24 34.103635 -117.888760 290 5508ft 121kts
31-Oct-23 15:25 34.116887 -117.932325 288 6008ft 147kts
31-Oct-23 15:25 34.124520 -117.973249 281 6347ft 154kts
31-Oct-23 15:27 34.134304 -118.035253 280 6396ft 165kts
31-Oct-23 15:28 34.142904 -118.089940 280 6398ft 166kts
31-Oct-23 15:29 34.151555 -118.144996 280 6398ft 166kts
31-Oct-23 15:30 34.160152 -118.199753 280 6398ft 166kts
31-Oct-23 15:30 34.167599 -118.245271 282 6422ft 166kts
31-Oct-23 15:31 34.177714 -118.299717 282 6422ft 166kts
31-Oct-23 15:32 34.187947 -118.354065 282 6424ft 166kts
31-Oct-23 15:33 34.198207 -118.408460 282 6425ft 166kts
31-Oct-23 15:35 34.209310 -118.472218 276 6425ft 162kts
31-Oct-23 15:36 34.212628 -118.523867 273 6262ft 155kts
31-Oct-23 15:36 34.213687 -118.568606 269 5844ft 163kts
31-Oct-23 15:37 34.212802 -118.623620 268 5344ft 164kts
31-Oct-23 15:38 34.212219 -118.678633 269 4847ft 164kts
31-Oct-23 15:39 34.211990 -118.733933 269 4345ft 164kts
31-Oct-23 15:40 34.211751 -118.788681 269 3850ft 155kts
31-Oct-23 15:41 34.211567 -118.835469 269 3315ft 129kts
31-Oct-23 15:42 34.212769 -118.878492 278 2765ft 127kts
31-Oct-23 15:43 34.216977 -118.920703 273 2422ft 127kts
31-Oct-23 15:44 34.222790 -118.964683 281 2362ft 140kts
31-Oct-23 15:45 34.228362 -119.011501 277 1834ft 145kts
31-Oct-23 15:46 34.231413 -119.056521 271 1279ft 112kts
31-Oct-23 15:47 34.229992 -119.090401 295 823ft 89kts
31-Oct-23 15:48 34.234656 -119.120295 259 1509ft 94kts
31-Oct-23 15:49 34.217249 -119.130501 131 883ft 93kts
31-Oct-23 15:50 34.213771 -119.104404 90 106ft 67kts
31-Oct-23 15:51 34.213622 -119.091203 132 72ft 23kts
31-Oct-23 15:52 34.211017 -119.089112 105 78ft 9kts
31-Oct-23 15:53 34.210307 -119.087030 2 75ft 2kts
31-Oct-23 15:54 34.210331 -119.087029 1 75ft 0kts

Navigation Log

Ident Type
Flight plan parsing failed, navigation log unavailable